CSN6520 ZSPD-ZYTX
Flight info
| Callsign | CSN6520 |
|---|---|
| Flight time | 1h 56m |
| Altitude | 31100 |
| Route | IBEGI B221 XDX DCT URBAD W172 IGDEG W173 NIXEP W8 DOBGA W202 UDETI A588 TOSID TOS71A |
| Aircraft | B77W/H-SDE1E2E3FGHIJ2J3J4J5M1RWXY/LB1D1 |
Departure
| Time | 2026-05-05 13:50 |
|---|---|
| Airport | Shanghai Pudong International Airport (ZSPD) |
Arrival
| Time | 2026-05-05 15:47 |
|---|---|
| Airport | Shenyang Taoxian International Airport (ZYTX) |
| Time | Latitude | Longitude | Altitude | Speed | Heading |
|---|---|---|---|---|---|
| 2026-05-05 13:02 | 31.13666 | 121.81376 | 27 ft | 0 kts | 252° |
| 2026-05-05 13:31 | 31.13668 | 121.81384 | 27 ft | 2 kts | 252° |
| 2026-05-05 13:31 | 31.13673 | 121.81401 | 27 ft | 2 kts | 252° |
| 2026-05-05 13:31 | 31.13678 | 121.81418 | 27 ft | 2 kts | 252° |
| 2026-05-05 13:31 | 31.13683 | 121.81435 | 27 ft | 2 kts | 253° |
| 2026-05-05 13:32 | 31.13684 | 121.81451 | 27 ft | 2 kts | 282° |
| 2026-05-05 13:32 | 31.13679 | 121.81467 | 27 ft | 2 kts | 307° |
| 2026-05-05 13:32 | 31.13668 | 121.81480 | 27 ft | 2 kts | 332° |
| 2026-05-05 13:32 | 31.13654 | 121.81485 | 27 ft | 2 kts | 346° |
| 2026-05-05 13:33 | 31.13640 | 121.81490 | 27 ft | 2 kts | 343° |
| 2026-05-05 13:33 | 31.13635 | 121.81491 | 27 ft | 0 kts | 343° |
| 2026-05-05 13:35 | 31.13636 | 121.81491 | 27 ft | 1 kts | 343° |
| 2026-05-05 13:35 | 31.13663 | 121.81481 | 27 ft | 6 kts | 342° |
| 2026-05-05 13:35 | 31.13724 | 121.81458 | 27 ft | 9 kts | 342° |
| 2026-05-05 13:36 | 31.13790 | 121.81435 | 27 ft | 9 kts | 348° |
| 2026-05-05 13:36 | 31.13838 | 121.81467 | 27 ft | 8 kts | 67° |
| 2026-05-05 13:36 | 31.13860 | 121.81541 | 27 ft | 10 kts | 72° |
| 2026-05-05 13:36 | 31.13883 | 121.81623 | 27 ft | 10 kts | 72° |
| 2026-05-05 13:37 | 31.13914 | 121.81688 | 27 ft | 8 kts | 25° |
| 2026-05-05 13:37 | 31.13972 | 121.81680 | 27 ft | 8 kts | 342° |
| 2026-05-05 13:37 | 31.14041 | 121.81654 | 27 ft | 11 kts | 342° |
| 2026-05-05 13:37 | 31.14125 | 121.81622 | 27 ft | 13 kts | 342° |
| 2026-05-05 13:38 | 31.14224 | 121.81585 | 27 ft | 15 kts | 342° |
| 2026-05-05 13:38 | 31.14336 | 121.81543 | 27 ft | 17 kts | 342° |
| 2026-05-05 13:38 | 31.14457 | 121.81497 | 27 ft | 19 kts | 342° |
| 2026-05-05 13:38 | 31.14589 | 121.81447 | 27 ft | 20 kts | 342° |
| 2026-05-05 13:39 | 31.14729 | 121.81394 | 27 ft | 21 kts | 342° |
| 2026-05-05 13:39 | 31.14876 | 121.81339 | 27 ft | 22 kts | 342° |
| 2026-05-05 13:39 | 31.15027 | 121.81282 | 27 ft | 22 kts | 342° |
| 2026-05-05 13:39 | 31.15182 | 121.81223 | 27 ft | 23 kts | 342° |
| 2026-05-05 13:40 | 31.15337 | 121.81165 | 27 ft | 23 kts | 342° |
| 2026-05-05 13:40 | 31.15486 | 121.81109 | 27 ft | 21 kts | 342° |
| 2026-05-05 13:40 | 31.15580 | 121.81073 | 27 ft | 11 kts | 342° |
| 2026-05-05 13:40 | 31.15643 | 121.81049 | 27 ft | 6 kts | 342° |
| 2026-05-05 13:41 | 31.15652 | 121.81046 | 27 ft | 0 kts | 342° |
| 2026-05-05 13:44 | 31.15653 | 121.81046 | 27 ft | 0 kts | 342° |
| 2026-05-05 13:44 | 31.15657 | 121.81044 | 27 ft | 1 kts | 342° |
| 2026-05-05 13:44 | 31.15680 | 121.81035 | 27 ft | 5 kts | 342° |
| 2026-05-05 13:45 | 31.15721 | 121.81022 | 27 ft | 6 kts | 358° |
| 2026-05-05 13:45 | 31.15752 | 121.81045 | 27 ft | 5 kts | 65° |
| 2026-05-05 13:45 | 31.15757 | 121.81059 | 27 ft | 0 kts | 72° |
| 2026-05-05 13:47 | 31.15757 | 121.81060 | 27 ft | 0 kts | 72° |
| 2026-05-05 13:47 | 31.15762 | 121.81081 | 27 ft | 4 kts | 72° |
| 2026-05-05 13:47 | 31.15776 | 121.81128 | 27 ft | 7 kts | 72° |
| 2026-05-05 13:48 | 31.15788 | 121.81184 | 27 ft | 7 kts | 93° |
| 2026-05-05 13:48 | 31.15754 | 121.81227 | 27 ft | 7 kts | 158° |
| 2026-05-05 13:48 | 31.15731 | 121.81236 | 27 ft | 0 kts | 161° |
| 2026-05-05 13:49 | 31.15654 | 121.81266 | 27 ft | 37 kts | 162° |
| 2026-05-05 13:49 | 31.15173 | 121.81448 | 27 ft | 105 kts | 162° |
| 2026-05-05 13:50 | 31.14263 | 121.81793 | 51 ft | 160 kts | 162° |
| 2026-05-05 13:50 | 31.13198 | 121.82208 | 645 ft | 164 kts | 162° |
| 2026-05-05 13:50 | 31.12103 | 121.82643 | 1410 ft | 166 kts | 162° |
| 2026-05-05 13:50 | 31.11007 | 121.83097 | 1956 ft | 173 kts | 157° |
| 2026-05-05 13:51 | 31.09917 | 121.83787 | 2416 ft | 184 kts | 151° |
| 2026-05-05 13:51 | 31.08761 | 121.84589 | 2772 ft | 203 kts | 149° |
| 2026-05-05 13:51 | 31.07499 | 121.85561 | 3113 ft | 224 kts | 146° |
| 2026-05-05 13:51 | 31.06191 | 121.86629 | 3591 ft | 239 kts | 145° |
| 2026-05-05 13:52 | 31.04769 | 121.87791 | 4103 ft | 253 kts | 145° |
| 2026-05-05 13:52 | 31.03299 | 121.88994 | 4724 ft | 260 kts | 145° |
| 2026-05-05 13:52 | 31.01812 | 121.90209 | 4917 ft | 263 kts | 144° |
| 2026-05-05 13:52 | 31.00382 | 121.91572 | 4936 ft | 263 kts | 138° |
| 2026-05-05 13:53 | 30.99024 | 121.93014 | 4933 ft | 262 kts | 137° |
| 2026-05-05 13:53 | 30.97682 | 121.94447 | 4942 ft | 262 kts | 137° |
| 2026-05-05 13:53 | 30.96319 | 121.95896 | 4947 ft | 263 kts | 138° |
| 2026-05-05 13:53 | 30.94972 | 121.97327 | 4930 ft | 263 kts | 136° |
| 2026-05-05 13:54 | 30.93910 | 121.99068 | 4922 ft | 264 kts | 112° |
| 2026-05-05 13:54 | 30.93636 | 122.01187 | 4987 ft | 278 kts | 84° |
| 2026-05-05 13:54 | 30.94038 | 122.03369 | 5918 ft | 274 kts | 75° |
| 2026-05-05 13:54 | 30.94589 | 122.05481 | 6794 ft | 272 kts | 73° |
| 2026-05-05 13:55 | 30.95172 | 122.07577 | 7474 ft | 277 kts | 72° |
| 2026-05-05 13:55 | 30.96072 | 122.09570 | 8113 ft | 282 kts | 49° |
| 2026-05-05 13:55 | 30.97639 | 122.10970 | 8784 ft | 285 kts | 24° |
| 2026-05-05 13:55 | 30.99563 | 122.11463 | 9409 ft | 288 kts | 358° |
| 2026-05-05 13:56 | 31.01530 | 122.11047 | 10038 ft | 291 kts | 343° |
| 2026-05-05 13:56 | 31.03489 | 122.10323 | 10516 ft | 302 kts | 341° |
| 2026-05-05 13:56 | 31.05585 | 122.09538 | 10885 ft | 318 kts | 341° |
| 2026-05-05 13:56 | 31.07718 | 122.08740 | 11261 ft | 334 kts | 341° |
| 2026-05-05 13:57 | 31.09993 | 122.07889 | 11698 ft | 348 kts | 341° |
| 2026-05-05 13:57 | 31.12344 | 122.07009 | 12259 ft | 359 kts | 341° |
| 2026-05-05 13:57 | 31.14760 | 122.06104 | 13095 ft | 363 kts | 341° |
| 2026-05-05 13:57 | 31.17168 | 122.05203 | 13992 ft | 366 kts | 341° |
| 2026-05-05 13:58 | 31.19585 | 122.04298 | 14881 ft | 371 kts | 340° |
| 2026-05-05 13:58 | 31.22086 | 122.03361 | 15870 ft | 374 kts | 340° |
| 2026-05-05 13:58 | 31.24555 | 122.02435 | 16811 ft | 378 kts | 340° |
| 2026-05-05 13:58 | 31.27051 | 122.01499 | 17745 ft | 381 kts | 339° |
| 2026-05-05 13:59 | 31.32215 | 121.99561 | 19487 ft | 391 kts | 339° |
| 2026-05-05 13:59 | 31.34798 | 121.98592 | 20327 ft | 395 kts | 339° |
| 2026-05-05 14:00 | 31.40103 | 121.96605 | 21992 ft | 403 kts | 340° |
| 2026-05-05 14:00 | 31.41905 | 121.95924 | 22503 ft | 407 kts | 340° |
| 2026-05-05 14:00 | 31.45493 | 121.94562 | 23459 ft | 414 kts | 340° |
| 2026-05-05 14:00 | 31.48281 | 121.93504 | 24154 ft | 418 kts | 340° |
| 2026-05-05 14:01 | 31.51073 | 121.92444 | 24838 ft | 423 kts | 340° |
| 2026-05-05 14:01 | 31.53876 | 121.91379 | 25480 ft | 427 kts | 339° |
| 2026-05-05 14:01 | 31.56735 | 121.90294 | 26105 ft | 432 kts | 339° |
| 2026-05-05 14:01 | 31.59608 | 121.89202 | 26764 ft | 436 kts | 339° |
| 2026-05-05 14:02 | 31.62502 | 121.88102 | 27376 ft | 440 kts | 339° |
| 2026-05-05 14:02 | 31.65448 | 121.86981 | 28001 ft | 444 kts | 340° |
| 2026-05-05 14:02 | 31.68385 | 121.85864 | 28675 ft | 446 kts | 339° |
| 2026-05-05 14:02 | 31.71342 | 121.84737 | 29268 ft | 450 kts | 339° |
| 2026-05-05 14:03 | 31.74332 | 121.83598 | 29908 ft | 452 kts | 339° |
| 2026-05-05 14:03 | 31.77323 | 121.82458 | 30639 ft | 450 kts | 339° |
| 2026-05-05 14:03 | 31.80319 | 121.81315 | 31053 ft | 451 kts | 339° |
| 2026-05-05 14:03 | 31.83301 | 121.80177 | 31116 ft | 450 kts | 339° |
| 2026-05-05 14:04 | 31.89361 | 121.78321 | 31120 ft | 449 kts | 350° |
| 2026-05-05 14:04 | 31.95583 | 121.77558 | 31125 ft | 451 kts | 351° |
| 2026-05-05 14:05 | 32.01890 | 121.76820 | 31122 ft | 450 kts | 352° |
| 2026-05-05 14:05 | 32.08096 | 121.76089 | 31125 ft | 450 kts | 352° |
| 2026-05-05 14:06 | 32.14345 | 121.75351 | 31126 ft | 447 kts | 352° |
| 2026-05-05 14:06 | 32.20537 | 121.74618 | 31121 ft | 446 kts | 352° |
| 2026-05-05 14:07 | 32.26755 | 121.73880 | 31117 ft | 446 kts | 352° |
| 2026-05-05 14:07 | 32.32942 | 121.73145 | 31122 ft | 447 kts | 352° |
| 2026-05-05 14:08 | 32.39151 | 121.72407 | 31122 ft | 446 kts | 352° |
| 2026-05-05 14:08 | 32.45295 | 121.71675 | 31115 ft | 442 kts | 352° |
| 2026-05-05 14:09 | 32.51427 | 121.70943 | 31104 ft | 441 kts | 352° |
| 2026-05-05 14:09 | 32.57584 | 121.70207 | 31114 ft | 443 kts | 352° |
| 2026-05-05 14:10 | 32.63720 | 121.69473 | 31109 ft | 441 kts | 352° |
| 2026-05-05 14:10 | 32.69830 | 121.68741 | 31104 ft | 442 kts | 353° |
| 2026-05-05 14:11 | 32.75959 | 121.68005 | 31107 ft | 442 kts | 353° |
| 2026-05-05 14:11 | 32.82088 | 121.67269 | 31103 ft | 439 kts | 353° |
| 2026-05-05 14:12 | 32.88150 | 121.66540 | 31104 ft | 439 kts | 353° |
| 2026-05-05 14:12 | 32.94260 | 121.65804 | 31107 ft | 438 kts | 353° |
| 2026-05-05 14:13 | 33.00326 | 121.65072 | 31096 ft | 438 kts | 353° |
| 2026-05-05 14:13 | 33.06408 | 121.64337 | 31098 ft | 439 kts | 353° |
| 2026-05-05 14:14 | 33.12494 | 121.63601 | 31101 ft | 437 kts | 353° |
| 2026-05-05 14:14 | 33.18597 | 121.62862 | 31095 ft | 437 kts | 353° |
| 2026-05-05 14:15 | 33.24634 | 121.61937 | 31095 ft | 434 kts | 346° |
| 2026-05-05 14:15 | 33.30317 | 121.59457 | 31096 ft | 435 kts | 337° |
| 2026-05-05 14:16 | 33.35868 | 121.56606 | 31098 ft | 434 kts | 337° |
| 2026-05-05 14:16 | 33.41409 | 121.53754 | 31093 ft | 433 kts | 337° |
| 2026-05-05 14:17 | 33.46943 | 121.50903 | 31086 ft | 433 kts | 337° |
| 2026-05-05 14:17 | 33.52458 | 121.48058 | 31085 ft | 432 kts | 337° |
| 2026-05-05 14:18 | 33.58000 | 121.45196 | 31083 ft | 432 kts | 337° |
| 2026-05-05 14:18 | 33.63528 | 121.42336 | 31085 ft | 432 kts | 337° |
| 2026-05-05 14:19 | 33.69049 | 121.39526 | 31088 ft | 430 kts | 339° |
| 2026-05-05 14:19 | 33.74655 | 121.36900 | 31085 ft | 431 kts | 339° |
| 2026-05-05 14:20 | 33.80204 | 121.34292 | 31083 ft | 430 kts | 339° |
| 2026-05-05 14:20 | 33.85800 | 121.31650 | 31080 ft | 430 kts | 339° |
| 2026-05-05 14:21 | 33.91268 | 121.29061 | 31079 ft | 436 kts | 339° |
| 2026-05-05 14:21 | 33.94149 | 121.27696 | 31124 ft | 450 kts | 339° |
| 2026-05-05 14:21 | 33.97113 | 121.26288 | 31513 ft | 456 kts | 339° |
| 2026-05-05 14:22 | 34.00087 | 121.24875 | 32218 ft | 454 kts | 339° |
| 2026-05-05 14:22 | 34.02986 | 121.23495 | 33074 ft | 448 kts | 338° |
| 2026-05-05 14:22 | 34.05866 | 121.22124 | 33847 ft | 442 kts | 338° |
| 2026-05-05 14:22 | 34.08734 | 121.20759 | 34314 ft | 442 kts | 338° |
| 2026-05-05 14:23 | 34.11583 | 121.19401 | 34685 ft | 444 kts | 338° |
| 2026-05-05 14:23 | 34.14489 | 121.18014 | 35011 ft | 446 kts | 338° |
| 2026-05-05 14:23 | 34.20276 | 121.15250 | 35076 ft | 443 kts | 338° |
| 2026-05-05 14:24 | 34.25966 | 121.12529 | 35072 ft | 440 kts | 338° |
| 2026-05-05 14:24 | 34.31702 | 121.09781 | 35076 ft | 441 kts | 338° |
| 2026-05-05 14:25 | 34.37420 | 121.07038 | 35068 ft | 440 kts | 338° |
| 2026-05-05 14:25 | 34.43131 | 121.04294 | 35067 ft | 438 kts | 338° |
| 2026-05-05 14:26 | 34.48803 | 121.01565 | 35059 ft | 437 kts | 338° |
| 2026-05-05 14:26 | 34.54476 | 120.98831 | 35062 ft | 437 kts | 338° |
| 2026-05-05 14:27 | 34.60158 | 120.96089 | 35068 ft | 435 kts | 338° |
| 2026-05-05 14:27 | 34.65776 | 120.93374 | 35059 ft | 433 kts | 339° |
| 2026-05-05 14:28 | 34.71442 | 120.90632 | 35054 ft | 435 kts | 338° |
| 2026-05-05 14:28 | 34.77063 | 120.87907 | 35051 ft | 431 kts | 338° |
| 2026-05-05 14:29 | 34.82640 | 120.85201 | 35048 ft | 432 kts | 338° |
| 2026-05-05 14:29 | 34.88242 | 120.82477 | 35049 ft | 431 kts | 339° |
| 2026-05-05 14:30 | 34.93810 | 120.79766 | 35041 ft | 429 kts | 339° |
| 2026-05-05 14:30 | 34.99361 | 120.77059 | 35038 ft | 429 kts | 339° |
| 2026-05-05 14:31 | 35.04919 | 120.74345 | 35040 ft | 429 kts | 339° |
| 2026-05-05 14:31 | 35.10458 | 120.71638 | 35042 ft | 427 kts | 339° |
| 2026-05-05 14:32 | 35.16018 | 120.68916 | 35049 ft | 428 kts | 339° |
| 2026-05-05 14:32 | 35.21550 | 120.66232 | 35040 ft | 426 kts | 339° |
| 2026-05-05 14:33 | 35.27120 | 120.63528 | 35046 ft | 427 kts | 339° |
| 2026-05-05 14:33 | 35.32630 | 120.60849 | 35039 ft | 425 kts | 339° |
| 2026-05-05 14:34 | 35.38150 | 120.58160 | 35038 ft | 426 kts | 339° |
| 2026-05-05 14:34 | 35.43652 | 120.55503 | 35031 ft | 424 kts | 339° |
| 2026-05-05 14:35 | 35.49175 | 120.52831 | 35030 ft | 426 kts | 338° |
| 2026-05-05 14:35 | 35.54692 | 120.50144 | 35030 ft | 423 kts | 338° |
| 2026-05-05 14:36 | 35.60212 | 120.47452 | 35026 ft | 425 kts | 338° |
| 2026-05-05 14:36 | 35.65719 | 120.44762 | 35026 ft | 424 kts | 338° |
| 2026-05-05 14:37 | 35.71217 | 120.42074 | 35021 ft | 424 kts | 338° |
| 2026-05-05 14:37 | 35.76716 | 120.39380 | 35017 ft | 424 kts | 338° |
| 2026-05-05 14:38 | 35.82188 | 120.36696 | 35009 ft | 422 kts | 338° |
| 2026-05-05 14:38 | 35.87825 | 120.34365 | 35019 ft | 424 kts | 347° |
| 2026-05-05 14:39 | 35.93595 | 120.33894 | 35019 ft | 428 kts | 1° |
| 2026-05-05 14:39 | 35.99486 | 120.35465 | 35010 ft | 436 kts | 16° |
| 2026-05-05 14:40 | 36.04871 | 120.39095 | 35006 ft | 446 kts | 30° |
| 2026-05-05 14:40 | 36.10181 | 120.42907 | 35011 ft | 439 kts | 19° |
| 2026-05-05 14:41 | 36.15949 | 120.45348 | 35025 ft | 433 kts | 10° |
| 2026-05-05 14:41 | 36.21821 | 120.46915 | 35021 ft | 432 kts | 7° |
| 2026-05-05 14:42 | 36.27798 | 120.48112 | 35023 ft | 431 kts | 4° |
| 2026-05-05 14:42 | 36.33770 | 120.48887 | 35017 ft | 430 kts | 1° |
| 2026-05-05 14:43 | 36.39684 | 120.50291 | 35014 ft | 436 kts | 14° |
| 2026-05-05 14:43 | 36.45441 | 120.52962 | 35019 ft | 440 kts | 16° |
| 2026-05-05 14:44 | 36.51170 | 120.55586 | 35010 ft | 434 kts | 12° |
| 2026-05-05 14:44 | 36.57129 | 120.56949 | 35014 ft | 434 kts | 4° |
| 2026-05-05 14:45 | 36.63094 | 120.57978 | 35005 ft | 431 kts | 4° |
| 2026-05-05 14:45 | 36.69115 | 120.59018 | 35006 ft | 433 kts | 4° |
| 2026-05-05 14:46 | 36.75075 | 120.60050 | 35007 ft | 432 kts | 4° |
| 2026-05-05 14:46 | 36.81072 | 120.61091 | 35008 ft | 433 kts | 4° |
| 2026-05-05 14:47 | 36.87048 | 120.62129 | 35011 ft | 433 kts | 4° |
| 2026-05-05 14:47 | 36.93081 | 120.63180 | 35016 ft | 434 kts | 4° |
| 2026-05-05 14:48 | 36.99067 | 120.64284 | 35014 ft | 433 kts | 4° |
| 2026-05-05 14:48 | 37.05040 | 120.65402 | 35001 ft | 435 kts | 5° |
| 2026-05-05 14:49 | 37.11035 | 120.66524 | 35007 ft | 434 kts | 5° |
| 2026-05-05 14:49 | 37.17025 | 120.67645 | 35013 ft | 434 kts | 5° |
| 2026-05-05 14:50 | 37.23040 | 120.68771 | 35008 ft | 436 kts | 5° |
| 2026-05-05 14:50 | 37.29074 | 120.69904 | 35007 ft | 436 kts | 5° |
| 2026-05-05 14:51 | 37.35111 | 120.71039 | 35005 ft | 435 kts | 5° |
| 2026-05-05 14:51 | 37.41124 | 120.72170 | 34987 ft | 436 kts | 5° |
| 2026-05-05 14:52 | 37.47121 | 120.73300 | 34991 ft | 436 kts | 4° |
| 2026-05-05 14:52 | 37.53195 | 120.74447 | 34992 ft | 436 kts | 5° |
| 2026-05-05 14:53 | 37.59226 | 120.75586 | 34976 ft | 438 kts | 4° |
| 2026-05-05 14:53 | 37.65269 | 120.76334 | 34979 ft | 435 kts | 1° |
| 2026-05-05 14:54 | 37.71359 | 120.77026 | 34968 ft | 435 kts | 1° |
| 2026-05-05 14:54 | 37.77395 | 120.77731 | 34959 ft | 437 kts | 1° |
| 2026-05-05 14:55 | 37.83484 | 120.78451 | 34961 ft | 436 kts | 1° |
| 2026-05-05 14:55 | 37.89548 | 120.79173 | 34959 ft | 436 kts | 1° |
| 2026-05-05 14:56 | 37.95636 | 120.79903 | 34945 ft | 438 kts | 1° |
| 2026-05-05 14:56 | 38.01590 | 120.81638 | 34933 ft | 447 kts | 17° |
| 2026-05-05 14:57 | 38.07161 | 120.85369 | 34944 ft | 454 kts | 25° |
| 2026-05-05 14:57 | 38.12627 | 120.89491 | 34944 ft | 455 kts | 26° |
| 2026-05-05 14:58 | 38.18084 | 120.93607 | 34946 ft | 454 kts | 26° |
| 2026-05-05 14:58 | 38.23214 | 120.98384 | 34939 ft | 464 kts | 40° |
| 2026-05-05 14:59 | 38.27144 | 121.05100 | 34939 ft | 480 kts | 57° |
| 2026-05-05 14:59 | 38.29900 | 121.12798 | 34946 ft | 481 kts | 61° |
| 2026-05-05 15:00 | 38.32153 | 121.19318 | 34943 ft | 481 kts | 61° |
| 2026-05-05 15:00 | 38.35291 | 121.28400 | 34949 ft | 480 kts | 61° |
| 2026-05-05 15:01 | 38.37978 | 121.36187 | 34956 ft | 480 kts | 61° |
| 2026-05-05 15:01 | 38.40654 | 121.43960 | 34955 ft | 478 kts | 61° |
| 2026-05-05 15:02 | 38.43499 | 121.51566 | 34956 ft | 474 kts | 57° |
| 2026-05-05 15:02 | 38.46538 | 121.59041 | 34966 ft | 475 kts | 57° |
| 2026-05-05 15:03 | 38.49569 | 121.66560 | 34965 ft | 477 kts | 58° |
| 2026-05-05 15:03 | 38.52579 | 121.74083 | 34971 ft | 476 kts | 58° |
| 2026-05-05 15:04 | 38.55573 | 121.81595 | 34965 ft | 476 kts | 58° |
| 2026-05-05 15:04 | 38.58562 | 121.89123 | 34965 ft | 475 kts | 58° |
| 2026-05-05 15:05 | 38.63041 | 122.00445 | 34976 ft | 474 kts | 58° |
| 2026-05-05 15:06 | 38.66020 | 122.07996 | 34976 ft | 476 kts | 58° |
| 2026-05-05 15:06 | 38.69564 | 122.14971 | 34970 ft | 464 kts | 42° |
| 2026-05-05 15:07 | 38.74426 | 122.20167 | 34979 ft | 450 kts | 27° |
| 2026-05-05 15:07 | 38.79728 | 122.24351 | 34973 ft | 450 kts | 26° |
| 2026-05-05 15:08 | 38.85041 | 122.28535 | 34977 ft | 449 kts | 26° |
| 2026-05-05 15:08 | 38.90400 | 122.32770 | 34972 ft | 451 kts | 26° |
| 2026-05-05 15:09 | 38.95704 | 122.36971 | 34976 ft | 450 kts | 26° |
| 2026-05-05 15:09 | 39.01052 | 122.41217 | 34972 ft | 449 kts | 26° |
| 2026-05-05 15:10 | 39.06376 | 122.45452 | 34974 ft | 450 kts | 26° |
| 2026-05-05 15:10 | 39.11690 | 122.49687 | 34982 ft | 449 kts | 26° |
| 2026-05-05 15:11 | 39.16966 | 122.53900 | 34989 ft | 450 kts | 26° |
| 2026-05-05 15:11 | 39.22338 | 122.58197 | 34990 ft | 450 kts | 26° |
| 2026-05-05 15:12 | 39.27669 | 122.62458 | 34992 ft | 450 kts | 25° |
| 2026-05-05 15:12 | 39.33149 | 122.66354 | 34986 ft | 447 kts | 24° |
| 2026-05-05 15:13 | 39.38644 | 122.70233 | 34989 ft | 450 kts | 24° |
| 2026-05-05 15:13 | 39.44146 | 122.74144 | 35000 ft | 450 kts | 24° |
| 2026-05-05 15:14 | 39.49666 | 122.78083 | 35010 ft | 450 kts | 24° |
| 2026-05-05 15:14 | 39.55126 | 122.81992 | 35019 ft | 450 kts | 24° |
| 2026-05-05 15:15 | 39.60641 | 122.85950 | 35015 ft | 449 kts | 24° |
| 2026-05-05 15:15 | 39.66116 | 122.89887 | 35022 ft | 451 kts | 24° |
| 2026-05-05 15:16 | 39.71609 | 122.93845 | 35024 ft | 450 kts | 24° |
| 2026-05-05 15:16 | 39.77134 | 122.97834 | 35033 ft | 452 kts | 24° |
| 2026-05-05 15:17 | 39.82644 | 123.01820 | 35040 ft | 452 kts | 24° |
| 2026-05-05 15:17 | 39.88150 | 123.05810 | 35043 ft | 452 kts | 24° |
| 2026-05-05 15:18 | 39.93703 | 123.09841 | 35045 ft | 453 kts | 24° |
| 2026-05-05 15:18 | 39.99251 | 123.13877 | 35046 ft | 453 kts | 24° |
| 2026-05-05 15:19 | 40.04771 | 123.17901 | 35041 ft | 453 kts | 24° |
| 2026-05-05 15:19 | 40.10339 | 123.21912 | 35043 ft | 455 kts | 24° |
| 2026-05-05 15:20 | 40.15871 | 123.25895 | 35042 ft | 453 kts | 24° |
| 2026-05-05 15:20 | 40.21396 | 123.29881 | 35047 ft | 455 kts | 24° |
| 2026-05-05 15:21 | 40.26937 | 123.33888 | 35035 ft | 455 kts | 24° |
| 2026-05-05 15:21 | 40.32497 | 123.37918 | 35001 ft | 450 kts | 24° |
| 2026-05-05 15:21 | 40.35233 | 123.39903 | 34783 ft | 450 kts | 24° |
| 2026-05-05 15:22 | 40.37951 | 123.41877 | 34421 ft | 453 kts | 24° |
| 2026-05-05 15:22 | 40.40767 | 123.43922 | 34046 ft | 455 kts | 24° |
| 2026-05-05 15:22 | 40.43521 | 123.45927 | 33723 ft | 456 kts | 24° |
| 2026-05-05 15:22 | 40.46340 | 123.47980 | 33360 ft | 458 kts | 24° |
| 2026-05-05 15:23 | 40.49105 | 123.49995 | 32982 ft | 461 kts | 24° |
| 2026-05-05 15:23 | 40.51939 | 123.52063 | 32578 ft | 463 kts | 24° |
| 2026-05-05 15:23 | 40.54758 | 123.54124 | 31957 ft | 460 kts | 24° |
| 2026-05-05 15:23 | 40.57524 | 123.56190 | 31178 ft | 462 kts | 28° |
| 2026-05-05 15:24 | 40.60160 | 123.58663 | 30487 ft | 463 kts | 34° |
| 2026-05-05 15:24 | 40.62693 | 123.61266 | 30078 ft | 467 kts | 34° |
| 2026-05-05 15:24 | 40.65285 | 123.63939 | 29595 ft | 479 kts | 34° |
| 2026-05-05 15:24 | 40.67899 | 123.66643 | 29070 ft | 477 kts | 36° |
| 2026-05-05 15:25 | 40.70503 | 123.69339 | 28547 ft | 473 kts | 35° |
| 2026-05-05 15:25 | 40.73065 | 123.71994 | 28030 ft | 467 kts | 35° |
| 2026-05-05 15:25 | 40.75614 | 123.74638 | 27513 ft | 463 kts | 35° |
| 2026-05-05 15:25 | 40.78144 | 123.77264 | 26998 ft | 460 kts | 35° |
| 2026-05-05 15:26 | 40.80665 | 123.79881 | 26473 ft | 459 kts | 35° |
| 2026-05-05 15:26 | 40.83158 | 123.82474 | 25945 ft | 457 kts | 35° |
| 2026-05-05 15:26 | 40.85650 | 123.85066 | 25420 ft | 455 kts | 35° |
| 2026-05-05 15:26 | 40.88121 | 123.87640 | 24898 ft | 452 kts | 35° |
| 2026-05-05 15:27 | 40.90603 | 123.90161 | 24387 ft | 447 kts | 31° |
| 2026-05-05 15:27 | 40.93236 | 123.92250 | 23877 ft | 442 kts | 25° |
| 2026-05-05 15:27 | 40.95931 | 123.94187 | 23342 ft | 440 kts | 25° |
| 2026-05-05 15:27 | 40.98609 | 123.96103 | 22807 ft | 437 kts | 25° |
| 2026-05-05 15:28 | 41.01262 | 123.98004 | 22279 ft | 433 kts | 24° |
| 2026-05-05 15:28 | 41.03908 | 123.99903 | 21746 ft | 429 kts | 25° |
| 2026-05-05 15:28 | 41.06496 | 124.01763 | 21220 ft | 425 kts | 25° |
| 2026-05-05 15:28 | 41.09122 | 124.03651 | 20678 ft | 422 kts | 25° |
| 2026-05-05 15:29 | 41.11674 | 124.05490 | 20154 ft | 418 kts | 25° |
| 2026-05-05 15:29 | 41.14186 | 124.07301 | 19624 ft | 415 kts | 25° |
| 2026-05-05 15:29 | 41.16759 | 124.09161 | 19081 ft | 411 kts | 25° |
| 2026-05-05 15:29 | 41.19270 | 124.10978 | 18558 ft | 408 kts | 25° |
| 2026-05-05 15:30 | 41.21726 | 124.12758 | 18030 ft | 405 kts | 25° |
| 2026-05-05 15:30 | 41.24192 | 124.14547 | 17534 ft | 401 kts | 25° |
| 2026-05-05 15:30 | 41.26628 | 124.16315 | 17101 ft | 396 kts | 25° |
| 2026-05-05 15:30 | 41.29019 | 124.18052 | 16634 ft | 392 kts | 25° |
| 2026-05-05 15:31 | 41.31419 | 124.19791 | 16140 ft | 390 kts | 25° |
| 2026-05-05 15:31 | 41.33793 | 124.21512 | 15611 ft | 387 kts | 25° |
| 2026-05-05 15:31 | 41.36147 | 124.23220 | 15112 ft | 385 kts | 25° |
| 2026-05-05 15:31 | 41.38508 | 124.24910 | 14598 ft | 382 kts | 22° |
| 2026-05-05 15:32 | 41.40946 | 124.26155 | 14016 ft | 377 kts | 11° |
| 2026-05-05 15:32 | 41.43516 | 124.26796 | 13469 ft | 370 kts | 0° |
| 2026-05-05 15:32 | 41.46033 | 124.26821 | 12993 ft | 361 kts | 350° |
| 2026-05-05 15:32 | 41.48517 | 124.26274 | 12434 ft | 355 kts | 340° |
| 2026-05-05 15:33 | 41.50795 | 124.25224 | 11882 ft | 349 kts | 330° |
| 2026-05-05 15:33 | 41.52897 | 124.23695 | 11386 ft | 341 kts | 321° |
| 2026-05-05 15:33 | 41.54761 | 124.21751 | 10923 ft | 332 kts | 311° |
| 2026-05-05 15:33 | 41.56356 | 124.19626 | 10770 ft | 317 kts | 309° |
| 2026-05-05 15:34 | 41.57857 | 124.17565 | 10700 ft | 303 kts | 308° |
| 2026-05-05 15:34 | 41.59293 | 124.15587 | 10584 ft | 291 kts | 308° |
| 2026-05-05 15:34 | 41.60677 | 124.13678 | 10464 ft | 279 kts | 308° |
| 2026-05-05 15:34 | 41.62010 | 124.11838 | 10333 ft | 269 kts | 308° |
| 2026-05-05 15:35 | 41.63284 | 124.10078 | 10220 ft | 259 kts | 307° |
| 2026-05-05 15:35 | 41.64514 | 124.08376 | 10035 ft | 252 kts | 307° |
| 2026-05-05 15:35 | 41.65728 | 124.06692 | 9666 ft | 252 kts | 307° |
| 2026-05-05 15:35 | 41.66949 | 124.04996 | 9307 ft | 252 kts | 307° |
| 2026-05-05 15:36 | 41.68173 | 124.03294 | 8967 ft | 251 kts | 307° |
| 2026-05-05 15:36 | 41.69374 | 124.01623 | 8638 ft | 251 kts | 306° |
| 2026-05-05 15:36 | 41.70581 | 123.99944 | 8312 ft | 250 kts | 306° |
| 2026-05-05 15:36 | 41.71783 | 123.98270 | 7986 ft | 249 kts | 306° |
| 2026-05-05 15:37 | 41.72983 | 123.96598 | 7659 ft | 248 kts | 306° |
| 2026-05-05 15:37 | 41.74192 | 123.94913 | 7322 ft | 247 kts | 305° |
| 2026-05-05 15:37 | 41.75372 | 123.93268 | 6994 ft | 247 kts | 305° |
| 2026-05-05 15:37 | 41.76563 | 123.91604 | 6662 ft | 246 kts | 305° |
| 2026-05-05 15:38 | 41.77746 | 123.89951 | 6334 ft | 246 kts | 305° |
| 2026-05-05 15:38 | 41.78927 | 123.88302 | 6007 ft | 245 kts | 304° |
| 2026-05-05 15:38 | 41.80109 | 123.86648 | 5688 ft | 245 kts | 304° |
| 2026-05-05 15:38 | 41.81290 | 123.84993 | 5374 ft | 245 kts | 305° |
| 2026-05-05 15:39 | 41.82475 | 123.83335 | 5045 ft | 245 kts | 305° |
| 2026-05-05 15:39 | 41.83416 | 123.81551 | 4703 ft | 230 kts | 282° |
| 2026-05-05 15:39 | 41.83585 | 123.79521 | 4393 ft | 214 kts | 255° |
| 2026-05-05 15:39 | 41.83075 | 123.77689 | 4196 ft | 206 kts | 237° |
| 2026-05-05 15:40 | 41.82260 | 123.76172 | 4166 ft | 192 kts | 230° |
| 2026-05-05 15:40 | 41.81428 | 123.74828 | 4121 ft | 181 kts | 228° |
| 2026-05-05 15:40 | 41.80607 | 123.73566 | 4054 ft | 177 kts | 227° |
| 2026-05-05 15:40 | 41.79798 | 123.72333 | 3985 ft | 176 kts | 227° |
| 2026-05-05 15:41 | 41.78990 | 123.71101 | 3902 ft | 175 kts | 227° |
| 2026-05-05 15:41 | 41.78199 | 123.69891 | 3744 ft | 169 kts | 226° |
| 2026-05-05 15:41 | 41.77438 | 123.68729 | 3595 ft | 162 kts | 226° |
| 2026-05-05 15:41 | 41.76711 | 123.67620 | 3464 ft | 155 kts | 225° |
| 2026-05-05 15:42 | 41.76000 | 123.66536 | 3330 ft | 153 kts | 225° |
| 2026-05-05 15:42 | 41.75291 | 123.65456 | 3189 ft | 153 kts | 225° |
| 2026-05-05 15:42 | 41.74587 | 123.64383 | 2992 ft | 149 kts | 225° |
| 2026-05-05 15:42 | 41.73912 | 123.63357 | 2818 ft | 147 kts | 225° |
| 2026-05-05 15:43 | 41.73231 | 123.62319 | 2633 ft | 147 kts | 224° |
| 2026-05-05 15:43 | 41.72576 | 123.61320 | 2445 ft | 136 kts | 224° |
| 2026-05-05 15:43 | 41.71973 | 123.60405 | 2286 ft | 130 kts | 223° |
| 2026-05-05 15:43 | 41.71368 | 123.59489 | 2114 ft | 130 kts | 223° |
| 2026-05-05 15:44 | 41.70769 | 123.58578 | 1951 ft | 131 kts | 222° |
| 2026-05-05 15:44 | 41.70155 | 123.57648 | 1774 ft | 133 kts | 222° |
| 2026-05-05 15:44 | 41.69538 | 123.56716 | 1598 ft | 134 kts | 222° |
| 2026-05-05 15:44 | 41.68919 | 123.55781 | 1413 ft | 134 kts | 223° |
| 2026-05-05 15:45 | 41.68296 | 123.54839 | 1231 ft | 135 kts | 223° |
| 2026-05-05 15:45 | 41.67664 | 123.53885 | 1040 ft | 137 kts | 224° |
| 2026-05-05 15:45 | 41.67029 | 123.52929 | 827 ft | 138 kts | 224° |
| 2026-05-05 15:45 | 41.66375 | 123.51943 | 644 ft | 140 kts | 224° |
| 2026-05-05 15:46 | 41.65727 | 123.50951 | 451 ft | 141 kts | 224° |
| 2026-05-05 15:46 | 41.65058 | 123.49950 | 276 ft | 144 kts | 225° |
| 2026-05-05 15:46 | 41.64424 | 123.48990 | 213 ft | 122 kts | 229° |
| 2026-05-05 15:46 | 41.63982 | 123.48320 | 213 ft | 69 kts | 229° |
| 2026-05-05 15:47 | 41.63772 | 123.48001 | 213 ft | 34 kts | 229° |
| 2026-05-05 15:47 | 41.63671 | 123.47846 | 213 ft | 31 kts | 229° |
| 2026-05-05 15:47 | 41.63492 | 123.47591 | 213 ft | 22 kts | 220° |
| 2026-05-05 15:47 | 41.63365 | 123.47498 | 213 ft | 13 kts | 200° |
| 2026-05-05 15:48 | 41.63283 | 123.47459 | 213 ft | 12 kts | 200° |
| 2026-05-05 15:48 | 41.63219 | 123.47475 | 213 ft | 9 kts | 116° |
| 2026-05-05 15:48 | 41.63237 | 123.47557 | 213 ft | 10 kts | 51° |
| 2026-05-05 15:48 | 41.63292 | 123.47642 | 213 ft | 12 kts | 49° |
| 2026-05-05 15:49 | 41.63350 | 123.47729 | 213 ft | 12 kts | 48° |
| 2026-05-05 15:49 | 41.63405 | 123.47812 | 213 ft | 11 kts | 49° |
| 2026-05-05 15:49 | 41.63458 | 123.47891 | 213 ft | 11 kts | 49° |
| 2026-05-05 15:49 | 41.63509 | 123.47969 | 213 ft | 10 kts | 49° |
| 2026-05-05 15:50 | 41.63546 | 123.48048 | 213 ft | 9 kts | 93° |
| 2026-05-05 15:50 | 41.63509 | 123.48118 | 213 ft | 9 kts | 139° |
| 2026-05-05 15:50 | 41.63458 | 123.48170 | 213 ft | 5 kts | 161° |
| 2026-05-05 15:50 | 41.63427 | 123.48141 | 213 ft | 5 kts | 226° |
| 2026-05-05 15:51 | 41.63394 | 123.48128 | 213 ft | 3 kts | 159° |
| 2026-05-05 15:51 | 41.63372 | 123.48153 | 213 ft | 4 kts | 139° |
| 2026-05-05 15:51 | 41.63349 | 123.48181 | 213 ft | 4 kts | 138° |
| 2026-05-05 15:51 | 41.63335 | 123.48197 | 213 ft | 0 kts | 138° |
| 2026-05-05 15:52 | 41.63334 | 123.48199 | 213 ft | 0 kts | 138° |